createdAt,value
2024-03-16T00:00:18.265Z,10.60
2024-03-16T00:02:45.886Z,10.60
2024-03-16T00:05:12.695Z,10.70
2024-03-16T00:07:39.476Z,10.60
2024-03-16T00:10:07.708Z,10.70
2024-03-16T00:12:35.862Z,10.70
2024-03-16T00:15:02.703Z,10.70
2024-03-16T00:17:31.611Z,10.70
2024-03-16T00:19:58.402Z,10.70
2024-03-16T00:22:25.342Z,10.70
2024-03-16T00:24:53.634Z,10.80
2024-03-16T00:27:20.476Z,10.80
2024-03-16T00:29:47.242Z,10.70
2024-03-16T00:32:14.040Z,10.60
2024-03-16T00:34:40.885Z,10.70
2024-03-16T00:37:09.876Z,10.50
2024-03-16T00:39:36.815Z,10.50
2024-03-16T00:42:03.594Z,10.50
2024-03-16T00:44:31.216Z,10.50
2024-03-16T00:46:58.017Z,10.50
2024-03-16T00:49:25.510Z,10.40
2024-03-16T00:51:52.339Z,10.40
2024-03-16T00:54:19.232Z,10.40
2024-03-16T00:56:47.350Z,10.30
2024-03-16T00:59:14.418Z,10.30
2024-03-16T01:01:41.311Z,10.30
2024-03-16T01:04:08.823Z,10.30
2024-03-16T01:06:35.709Z,10.20
2024-03-16T01:09:02.540Z,10.10
2024-03-16T01:11:29.410Z,10.10
2024-03-16T01:13:56.285Z,10.10
2024-03-16T01:16:24.339Z,10.20
2024-03-16T01:18:51.147Z,10.10
2024-03-16T01:21:17.917Z,10.00
2024-03-16T01:23:44.775Z,10.00
2024-03-16T01:26:11.543Z,10.00
2024-03-16T01:28:38.312Z,10.00
2024-03-16T01:31:05.242Z,10.00
2024-03-16T01:33:32.131Z,9.90
2024-03-16T01:35:59.496Z,9.90
2024-03-16T01:38:26.306Z,9.90
2024-03-16T01:40:53.292Z,10.00
2024-03-16T01:43:20.102Z,9.90
2024-03-16T01:45:47.148Z,9.90
2024-03-16T01:48:15.518Z,9.80
2024-03-16T01:50:42.937Z,9.80
2024-03-16T01:53:13.119Z,9.90
2024-03-16T01:55:40.203Z,10.00
2024-03-16T01:58:07.629Z,9.90
2024-03-16T02:00:35.569Z,9.80
2024-03-16T02:03:03.410Z,9.80
2024-03-16T02:05:32.441Z,9.80
2024-03-16T02:08:00.388Z,9.70
2024-03-16T02:10:27.259Z,9.70
2024-03-16T02:12:54.172Z,9.60
2024-03-16T02:15:20.997Z,9.50
2024-03-16T02:17:48.057Z,9.40
2024-03-16T02:20:17.868Z,9.40
2024-03-16T02:22:44.798Z,9.30
2024-03-16T02:25:12.037Z,9.30
2024-03-16T02:27:39.040Z,9.30
2024-03-16T02:30:11.091Z,9.30
2024-03-16T02:32:38.609Z,9.20
2024-03-16T02:35:09.108Z,9.10
2024-03-16T02:37:37.149Z,9.10
2024-03-16T02:40:05.142Z,9.00
2024-03-16T02:42:32.252Z,9.20
2024-03-16T02:44:59.036Z,9.10
2024-03-16T02:47:25.846Z,9.00
2024-03-16T02:49:54.124Z,9.00
2024-03-16T02:52:20.941Z,9.00
2024-03-16T02:54:47.794Z,9.00
2024-03-16T02:57:14.754Z,9.10
2024-03-16T02:59:41.607Z,9.10
2024-03-16T03:02:08.378Z,9.00
2024-03-16T03:04:35.440Z,8.90
2024-03-16T03:07:02.721Z,8.80
2024-03-16T03:09:30.381Z,8.80
2024-03-16T03:11:57.150Z,8.70
2024-03-16T03:14:23.974Z,8.70
2024-03-16T03:16:50.800Z,8.70
2024-03-16T03:19:17.639Z,8.70
2024-03-16T03:21:44.469Z,8.70
2024-03-16T03:24:11.340Z,8.70
2024-03-16T03:26:38.130Z,8.80
2024-03-16T03:29:04.873Z,8.70
2024-03-16T03:31:31.673Z,8.80
2024-03-16T03:33:58.926Z,8.80
2024-03-16T03:36:26.096Z,8.80
2024-03-16T03:38:52.939Z,8.80
2024-03-16T03:41:19.894Z,8.70
2024-03-16T03:43:58.355Z,8.80
2024-03-16T03:46:50.784Z,8.70
2024-03-16T03:49:32.861Z,8.70
2024-03-16T03:51:59.928Z,8.70
2024-03-16T03:54:27.423Z,8.70
2024-03-16T03:56:54.214Z,8.70
2024-03-16T03:59:21.183Z,8.70
2024-03-16T04:01:48.145Z,8.70
2024-03-16T04:04:15.118Z,8.70
2024-03-16T04:06:45.627Z,8.60
2024-03-16T04:09:13.371Z,8.60
2024-03-16T04:11:43.098Z,8.60
2024-03-16T04:14:09.902Z,8.70
2024-03-16T04:16:36.730Z,8.70
2024-03-16T04:19:04.371Z,8.60
2024-03-16T04:21:31.604Z,8.70
2024-03-16T04:23:58.526Z,8.60
2024-03-16T04:26:26.223Z,8.60
2024-03-16T04:28:53.152Z,8.70
2024-03-16T04:31:19.955Z,8.60
2024-03-16T04:33:46.802Z,8.70
2024-03-16T04:36:13.830Z,8.70
2024-03-16T04:38:40.715Z,8.70
2024-03-16T04:41:07.546Z,8.80
2024-03-16T04:43:35.111Z,8.80
2024-03-16T04:46:01.981Z,8.80
2024-03-16T04:48:28.880Z,8.70
2024-03-16T04:50:57.117Z,8.70
2024-03-16T04:53:24.051Z,8.70
2024-03-16T04:55:53.466Z,8.60
2024-03-16T04:58:20.334Z,8.60
2024-03-16T05:00:47.332Z,8.60
2024-03-16T05:03:14.254Z,8.70
2024-03-16T05:05:41.056Z,8.70
2024-03-16T05:08:08.752Z,8.70
2024-03-16T05:10:35.620Z,8.70
2024-03-16T05:13:02.755Z,8.70
2024-03-16T05:15:29.784Z,8.70
2024-03-16T05:17:56.884Z,8.70
2024-03-16T05:20:23.810Z,8.70
2024-03-16T05:22:50.664Z,8.70
2024-03-16T05:25:17.585Z,8.70
2024-03-16T05:27:44.526Z,8.70
2024-03-16T05:30:12.572Z,8.70
2024-03-16T05:32:39.578Z,8.60
2024-03-16T05:35:09.499Z,8.70
2024-03-16T05:37:36.948Z,8.70
2024-03-16T05:40:04.437Z,8.80
2024-03-16T05:42:31.949Z,8.70
2024-03-16T05:45:00.967Z,8.70
2024-03-16T05:47:27.930Z,8.70
2024-03-16T05:49:55.605Z,8.70
2024-03-16T05:52:22.440Z,8.70
2024-03-16T05:54:49.301Z,8.70
2024-03-16T05:57:17.235Z,8.80
2024-03-16T05:59:44.083Z,8.70
2024-03-16T06:02:10.958Z,8.80
2024-03-16T06:04:38.076Z,8.80
2024-03-16T06:07:05.411Z,8.80
2024-03-16T06:09:32.315Z,8.80
2024-03-16T06:11:59.086Z,8.70
2024-03-16T06:14:25.997Z,8.70
2024-03-16T06:16:53.319Z,8.80
2024-03-16T06:19:20.136Z,8.80
2024-03-16T06:21:47.040Z,8.80
2024-03-16T06:24:14.111Z,8.80
2024-03-16T06:26:42.220Z,8.90
2024-03-16T06:29:11.603Z,8.90
2024-03-16T06:31:39.915Z,8.90
2024-03-16T06:34:07.141Z,9.00
2024-03-16T06:36:35.142Z,9.00
2024-03-16T06:39:03.890Z,9.00
2024-03-16T06:41:31.992Z,9.30
2024-03-16T06:43:58.802Z,9.20
2024-03-16T06:46:25.585Z,9.30
2024-03-16T06:48:52.448Z,9.30
2024-03-16T06:51:19.929Z,9.40
2024-03-16T06:53:50.632Z,9.40
2024-03-16T06:56:17.520Z,9.40
2024-03-16T06:58:44.407Z,9.50
2024-03-16T07:01:13.483Z,9.60
2024-03-16T07:03:41.410Z,9.60
2024-03-16T07:06:09.913Z,9.60
2024-03-16T07:08:39.854Z,9.50
2024-03-16T07:11:06.833Z,9.50
2024-03-16T07:13:33.886Z,9.50
2024-03-16T07:16:00.835Z,9.50
2024-03-16T07:18:28.021Z,9.50
2024-03-16T07:20:54.901Z,9.50
2024-03-16T07:23:21.732Z,9.50
2024-03-16T07:25:51.693Z,9.70
2024-03-16T07:28:18.785Z,9.70
2024-03-16T07:30:46.334Z,9.60
2024-03-16T07:33:14.727Z,9.60
2024-03-16T07:35:42.313Z,9.60
2024-03-16T07:38:09.388Z,9.70
2024-03-16T07:40:36.362Z,9.60
2024-03-16T07:43:04.559Z,9.60
2024-03-16T07:45:31.462Z,9.60
2024-03-16T07:47:58.327Z,9.60
2024-03-16T07:50:25.098Z,9.70
2024-03-16T07:52:51.970Z,9.80
2024-03-16T07:55:18.816Z,9.80
2024-03-16T07:57:46.844Z,10.00
2024-03-16T08:00:14.416Z,10.00
2024-03-16T08:02:41.490Z,10.10
2024-03-16T08:05:12.224Z,10.30
2024-03-16T08:07:42.886Z,10.30
2024-03-16T08:10:12.623Z,10.40
2024-03-16T08:12:39.820Z,10.60
2024-03-16T08:15:07.552Z,10.60
2024-03-16T08:17:34.540Z,10.60
2024-03-16T08:20:01.389Z,10.60
2024-03-16T08:22:28.179Z,10.70
2024-03-16T08:24:55.036Z,10.80
2024-03-16T08:27:25.211Z,10.80
2024-03-16T08:29:53.560Z,10.80
2024-03-16T08:32:20.374Z,10.90
2024-03-16T08:34:48.216Z,10.90
2024-03-16T08:37:17.441Z,10.90
2024-03-16T08:39:45.192Z,10.80
2024-03-16T08:42:13.934Z,11.00
2024-03-16T08:44:40.799Z,10.90
2024-03-16T08:47:07.703Z,10.90
2024-03-16T08:49:35.242Z,11.10
2024-03-16T08:52:02.158Z,11.10
2024-03-16T08:54:30.980Z,11.20
2024-03-16T08:56:57.897Z,11.30
2024-03-16T08:59:24.957Z,11.30
2024-03-16T09:01:52.179Z,11.40
2024-03-16T09:04:19.161Z,11.40
2024-03-16T09:06:46.289Z,11.30
2024-03-16T09:09:13.442Z,11.20
2024-03-16T09:11:40.818Z,11.20
2024-03-16T09:14:07.800Z,11.20
2024-03-16T09:16:41.597Z,11.20
2024-03-16T09:19:09.044Z,11.20
2024-03-16T09:21:35.979Z,11.10
2024-03-16T09:24:02.861Z,10.90
2024-03-16T09:26:29.698Z,10.80
2024-03-16T09:28:56.557Z,10.80
2024-03-16T09:31:26.486Z,10.80
2024-03-16T09:33:53.664Z,10.80
2024-03-16T09:36:20.947Z,10.80
2024-03-16T09:38:48.579Z,10.80
2024-03-16T09:41:20.339Z,10.80
